createdAt,value
2023-11-25T00:01:05.966Z,16.63
2023-11-25T00:03:33.351Z,12.18
2023-11-25T00:06:00.536Z,13.32
2023-11-25T00:08:28.088Z,15.20
2023-11-25T00:10:55.562Z,12.63
2023-11-25T00:13:22.868Z,15.85
2023-11-25T00:15:50.155Z,11.13
2023-11-25T00:18:19.059Z,13.43
2023-11-25T00:20:47.807Z,14.57
2023-11-25T00:23:15.041Z,13.00
2023-11-25T00:25:42.308Z,13.55
2023-11-25T00:28:11.354Z,15.27
2023-11-25T00:30:39.677Z,12.75
2023-11-25T00:33:07.123Z,15.45
2023-11-25T00:35:34.383Z,13.82
2023-11-25T00:38:01.922Z,7.93
2023-11-25T00:40:29.684Z,12.75
2023-11-25T00:42:57.999Z,9.60
2023-11-25T00:45:27.579Z,12.15
2023-11-25T00:47:57.867Z,16.40
2023-11-25T00:50:26.067Z,17.02
2023-11-25T00:52:53.302Z,18.25
2023-11-25T00:55:21.613Z,11.52
2023-11-25T00:57:48.836Z,14.02
2023-11-25T01:00:23.923Z,13.88
2023-11-25T01:02:51.528Z,18.58
2023-11-25T01:05:18.926Z,10.13
2023-11-25T01:07:46.118Z,10.10
2023-11-25T01:10:13.358Z,9.20
2023-11-25T01:12:40.536Z,11.48
2023-11-25T01:15:08.392Z,16.08
2023-11-25T01:17:35.653Z,12.25
2023-11-25T01:20:02.920Z,12.15
2023-11-25T01:22:30.118Z,8.55
2023-11-25T01:24:57.589Z,8.15
2023-11-25T01:27:25.542Z,12.13
2023-11-25T01:29:52.933Z,13.00
2023-11-25T01:32:21.208Z,7.60
2023-11-25T01:34:48.663Z,11.05
2023-11-25T01:37:18.689Z,11.82
2023-11-25T01:39:46.595Z,11.98
2023-11-25T01:42:13.794Z,9.50
2023-11-25T01:44:40.986Z,9.60
2023-11-25T01:47:09.370Z,9.88
2023-11-25T01:49:37.091Z,13.20
2023-11-25T01:52:05.181Z,15.13
2023-11-25T01:54:32.508Z,9.00
2023-11-25T01:57:00.406Z,12.00
2023-11-25T01:59:28.564Z,15.85
2023-11-25T02:01:57.385Z,12.82
2023-11-25T02:04:24.900Z,14.32
2023-11-25T02:06:52.161Z,16.75
2023-11-25T02:09:19.313Z,12.20
2023-11-25T02:12:00.104Z,16.38
2023-11-25T02:14:28.510Z,13.20
2023-11-25T02:16:56.918Z,14.73
2023-11-25T02:19:27.529Z,15.45
2023-11-25T02:21:56.606Z,14.20
2023-11-25T02:24:27.928Z,14.15
2023-11-25T02:27:00.195Z,14.60
2023-11-25T02:29:27.836Z,17.35
2023-11-25T02:31:55.169Z,15.77
2023-11-25T02:34:22.415Z,15.32
2023-11-25T02:36:49.830Z,13.95
2023-11-25T02:39:19.340Z,16.38
2023-11-25T02:41:50.375Z,10.07
2023-11-25T02:44:18.124Z,16.42
2023-11-25T02:46:45.859Z,14.45
2023-11-25T02:49:13.446Z,11.77
2023-11-25T02:51:48.198Z,11.07
2023-11-25T02:54:15.817Z,11.88
2023-11-25T02:56:43.055Z,17.27
2023-11-25T02:59:11.061Z,13.38
2023-11-25T03:01:40.827Z,9.70
2023-11-25T03:04:09.025Z,12.35
2023-11-25T03:06:36.493Z,20.25
2023-11-25T03:09:06.989Z,21.50
2023-11-25T03:11:35.072Z,14.88
2023-11-25T03:14:02.316Z,13.82
2023-11-25T03:16:30.689Z,9.23
2023-11-25T03:18:57.931Z,12.68
2023-11-25T03:21:25.820Z,17.20
2023-11-25T03:23:53.088Z,11.73
2023-11-25T03:26:20.412Z,12.50
2023-11-25T03:28:47.578Z,20.65
2023-11-25T03:31:14.801Z,15.88
2023-11-25T03:33:42.339Z,12.10
2023-11-25T03:36:09.757Z,17.75
2023-11-25T03:38:37.493Z,12.45
2023-11-25T03:41:04.694Z,13.13
2023-11-25T03:43:31.881Z,17.02
2023-11-25T03:45:59.078Z,16.63
2023-11-25T03:48:26.253Z,11.52
2023-11-25T03:50:53.508Z,14.40
2023-11-25T03:53:20.675Z,19.83
2023-11-25T03:55:47.891Z,12.85
2023-11-25T03:58:15.458Z,10.55
2023-11-25T04:00:42.617Z,16.05
2023-11-25T04:03:10.056Z,14.02
2023-11-25T04:05:37.313Z,12.65
2023-11-25T04:08:04.522Z,10.50
2023-11-25T04:10:31.734Z,14.52
2023-11-25T04:12:59.444Z,14.02
2023-11-25T04:15:27.525Z,13.70
2023-11-25T04:17:55.171Z,13.27
2023-11-25T04:20:26.020Z,16.45
2023-11-25T04:22:54.311Z,6.00
2023-11-25T04:25:21.754Z,6.35
2023-11-25T04:27:50.323Z,4.85
2023-11-25T04:30:18.528Z,3.17
2023-11-25T04:32:47.421Z,3.17
2023-11-25T04:35:15.056Z,4.22
2023-11-25T04:37:44.710Z,4.07
2023-11-25T04:40:15.185Z,5.28
2023-11-25T04:42:42.902Z,3.67
2023-11-25T04:45:17.776Z,5.60
2023-11-25T04:47:45.686Z,7.90
2023-11-25T04:50:13.589Z,5.03
2023-11-25T04:52:41.336Z,6.78
2023-11-25T04:55:09.977Z,4.95
2023-11-25T04:57:37.648Z,2.95
2023-11-25T05:00:10.012Z,9.07
2023-11-25T05:02:40.387Z,8.23
2023-11-25T05:05:08.719Z,5.65
2023-11-25T05:07:36.532Z,6.70
2023-11-25T05:10:06.295Z,8.20
2023-11-25T05:12:33.602Z,5.57
2023-11-25T05:15:00.758Z,5.93
2023-11-25T05:17:28.252Z,4.50
2023-11-25T05:19:55.720Z,7.30
2023-11-25T05:22:23.196Z,3.80
2023-11-25T05:24:50.478Z,2.22
2023-11-25T05:27:17.624Z,5.32
2023-11-25T05:29:44.757Z,3.78
2023-11-25T05:32:14.142Z,4.72
2023-11-25T05:34:41.789Z,10.20
2023-11-25T05:37:09.282Z,5.85
2023-11-25T05:39:37.404Z,5.28
2023-11-25T05:42:06.540Z,5.53
2023-11-25T05:44:33.798Z,9.38
2023-11-25T05:47:01.031Z,5.57
2023-11-25T05:49:28.272Z,6.35
2023-11-25T05:51:57.727Z,7.15
2023-11-25T05:54:26.329Z,5.32
2023-11-25T05:56:53.469Z,5.25
2023-11-25T05:59:20.623Z,6.78
2023-11-25T06:01:48.061Z,4.97
2023-11-25T06:04:16.898Z,7.15
2023-11-25T06:06:45.643Z,9.02
2023-11-25T06:09:13.071Z,8.93
2023-11-25T06:11:40.732Z,5.82
2023-11-25T06:14:08.062Z,4.85
2023-11-25T06:16:38.241Z,4.30
2023-11-25T06:19:06.195Z,3.97
2023-11-25T06:21:34.719Z,9.82
2023-11-25T06:24:05.371Z,4.65
2023-11-25T06:26:32.566Z,9.07
2023-11-25T06:28:59.707Z,7.80
2023-11-25T06:31:27.337Z,6.90
2023-11-25T06:33:54.649Z,8.10
2023-11-25T06:36:21.774Z,6.13
2023-11-25T06:38:48.879Z,6.53
2023-11-25T06:41:15.977Z,4.38
2023-11-25T06:46:13.166Z,7.35
2023-11-25T06:48:40.460Z,9.43
2023-11-25T06:53:35.070Z,4.65
2023-11-25T06:56:02.558Z,5.22
2023-11-25T06:58:30.019Z,5.95
2023-11-25T07:00:59.531Z,6.82
2023-11-25T07:03:26.742Z,9.95
2023-11-25T07:05:53.983Z,5.35
2023-11-25T07:08:21.213Z,3.78
2023-11-25T07:10:55.049Z,3.33
2023-11-25T07:13:23.269Z,5.05
2023-11-25T07:15:50.782Z,5.07
2023-11-25T07:18:20.540Z,4.45
2023-11-25T07:20:48.553Z,3.80
2023-11-25T07:23:16.665Z,5.50
2023-11-25T07:25:46.261Z,2.92
2023-11-25T07:28:15.945Z,0.73
2023-11-25T07:30:43.480Z,2.35
2023-11-25T07:33:11.276Z,4.50
2023-11-25T07:35:39.199Z,3.20
2023-11-25T07:38:06.458Z,3.42
2023-11-25T07:40:34.168Z,2.42
2023-11-25T07:43:01.811Z,2.90
2023-11-25T07:45:29.029Z,6.50
2023-11-25T07:47:56.266Z,3.45
2023-11-25T07:50:23.480Z,5.57
2023-11-25T07:52:52.042Z,2.95
2023-11-25T07:55:19.610Z,5.95
2023-11-25T07:57:48.455Z,6.10
2023-11-25T08:00:20.760Z,5.82
2023-11-25T08:02:48.921Z,4.72
2023-11-25T08:05:23.531Z,3.67
2023-11-25T08:07:55.128Z,4.90
2023-11-25T08:10:23.139Z,4.05
2023-11-25T08:12:50.554Z,5.75
2023-11-25T08:15:18.406Z,2.92
2023-11-25T08:17:45.892Z,2.90
2023-11-25T08:20:13.240Z,2.92
2023-11-25T08:22:40.588Z,6.38
2023-11-25T08:25:11.688Z,3.05
2023-11-25T08:27:40.100Z,5.32
2023-11-25T08:30:10.970Z,3.25
2023-11-25T08:32:42.019Z,5.28
2023-11-25T08:35:10.352Z,4.28
2023-11-25T08:37:41.121Z,1.45
2023-11-25T08:40:22.405Z,4.68
2023-11-25T08:42:50.741Z,5.90
2023-11-25T08:45:18.174Z,3.25
2023-11-25T08:47:45.733Z,3.65
2023-11-25T08:50:17.196Z,3.13
2023-11-25T08:52:46.250Z,5.78
2023-11-25T08:55:18.848Z,7.38
2023-11-25T08:57:46.508Z,4.65
2023-11-25T09:00:23.131Z,10.80
2023-11-25T09:02:55.298Z,5.90
2023-11-25T09:05:23.880Z,9.93
2023-11-25T09:07:51.939Z,10.70
2023-11-25T09:10:20.811Z,7.38
2023-11-25T09:12:48.048Z,7.95
2023-11-25T09:15:15.199Z,7.32
2023-11-25T09:17:42.629Z,6.75
2023-11-25T09:20:13.755Z,7.47
2023-11-25T09:22:41.585Z,6.65
2023-11-25T09:25:13.247Z,10.77
2023-11-25T09:27:41.159Z,9.82
2023-11-25T09:30:12.370Z,9.00
2023-11-25T09:32:43.525Z,6.57
2023-11-25T09:35:12.205Z,11.10
2023-11-25T09:37:40.126Z,6.40
2023-11-25T09:40:08.124Z,6.85
2023-11-25T09:42:35.284Z,13.50
2023-11-25T09:45:02.594Z,15.00
2023-11-25T09:47:29.923Z,10.77
2023-11-25T09:49:57.182Z,13.00
2023-11-25T09:52:25.696Z,8.68
2023-11-25T09:54:59.564Z,10.65
2023-11-25T09:57:33.343Z,13.68
2023-11-25T10:00:01.825Z,11.23
2023-11-25T10:02:37.221Z,8.30
2023-11-25T10:05:06.178Z,8.80
2023-11-25T10:07:33.544Z,8.70
2023-11-25T10:10:02.357Z,11.10
2023-11-25T10:12:31.081Z,11.48
2023-11-25T10:15:00.502Z,10.60
2023-11-25T10:17:28.019Z,17.80
2023-11-25T10:20:11.578Z,9.55
2023-11-25T10:22:46.643Z,10.77
2023-11-25T10:25:14.025Z,8.40
2023-11-25T10:27:41.721Z,16.70
2023-11-25T10:30:09.874Z,12.63
2023-11-25T10:32:37.379Z,13.10
2023-11-25T10:35:04.644Z,8.57
2023-11-25T10:37:33.649Z,9.80
2023-11-25T10:40:01.051Z,8.98
2023-11-25T10:42:30.851Z,7.55
2023-11-25T10:44:58.004Z,9.77
2023-11-25T10:47:31.961Z,5.65
2023-11-25T10:50:02.518Z,10.30
2023-11-25T10:52:33.991Z,10.50
2023-11-25T10:55:02.476Z,10.10
2023-11-25T10:57:30.412Z,7.20
2023-11-25T10:59:58.702Z,6.25
2023-11-25T11:02:37.851Z,8.93
2023-11-25T11:05:10.050Z,10.43
2023-11-25T11:07:50.682Z,9.38
2023-11-25T11:10:21.818Z,7.93
2023-11-25T11:12:54.442Z,9.88
2023-11-25T11:15:22.218Z,7.38
2023-11-25T11:17:56.293Z,8.48
2023-11-25T11:20:26.336Z,8.60
2023-11-25T11:22:53.686Z,10.95
2023-11-25T11:25:24.935Z,9.48
2023-11-25T11:27:56.517Z,10.70
2023-11-25T11:30:32.687Z,8.50
2023-11-25T11:33:00.746Z,9.45
2023-11-25T11:35:40.137Z,10.30
2023-11-25T11:38:27.828Z,11.75
2023-11-25T11:41:00.371Z,10.07
2023-11-25T11:43:30.915Z,11.90
2023-11-25T11:45:58.631Z,11.77
2023-11-25T11:48:27.218Z,9.95
2023-11-25T11:50:55.922Z,7.60
2023-11-25T11:53:24.816Z,10.02
2023-11-25T11:55:56.020Z,11.15
2023-11-25T11:58:31.735Z,12.15
2023-11-25T12:01:02.462Z,9.68
2023-11-25T12:03:31.020Z,9.30
2023-11-25T12:05:58.169Z,9.70
2023-11-25T12:08:25.730Z,13.05
2023-11-25T12:10:53.314Z,11.88
2023-11-25T12:13:26.267Z,9.00
2023-11-25T12:15:54.576Z,8.45
2023-11-25T12:18:22.553Z,10.48
2023-11-25T12:20:49.789Z,11.25
2023-11-25T12:23:18.731Z,10.00
2023-11-25T12:25:46.029Z,11.88
2023-11-25T12:28:14.735Z,12.73
2023-11-25T12:30:42.482Z,12.10
2023-11-25T12:33:10.411Z,11.05
2023-11-25T12:35:38.154Z,9.13
2023-11-25T12:38:14.412Z,10.40
2023-11-25T12:40:45.732Z,8.23
2023-11-25T12:43:13.078Z,14.20
2023-11-25T12:45:41.889Z,10.68
2023-11-25T12:48:12.712Z,11.77
2023-11-25T12:50:59.420Z,16.42
2023-11-25T12:53:26.583Z,9.43
2023-11-25T12:55:53.898Z,8.80
2023-11-25T12:58:21.576Z,8.70
2023-11-25T13:00:51.958Z,12.38
2023-11-25T13:03:24.432Z,13.68
2023-11-25T13:05:52.582Z,11.32
2023-11-25T13:08:23.462Z,6.10
2023-11-25T13:10:51.077Z,9.85
2023-11-25T13:13:18.325Z,9.60
2023-11-25T13:15:45.534Z,5.75
2023-11-25T13:18:12.902Z,12.38
2023-11-25T13:20:41.143Z,7.70
2023-11-25T13:23:08.659Z,11.52
2023-11-25T13:25:35.833Z,10.45
2023-11-25T13:28:03.238Z,8.13
2023-11-25T13:30:31.022Z,8.52
2023-11-25T13:32:58.182Z,6.53
2023-11-25T13:35:25.775Z,8.93
2023-11-25T13:37:54.847Z,8.93
2023-11-25T13:40:28.352Z,9.40
2023-11-25T13:42:55.543Z,8.90
2023-11-25T13:45:24.347Z,9.63
2023-11-25T13:47:51.787Z,10.82
2023-11-25T13:50:18.950Z,11.55
2023-11-25T13:52:46.731Z,10.13
2023-11-25T13:55:17.007Z,12.77
2023-11-25T13:57:44.841Z,10.18
2023-11-25T14:00:13.196Z,15.23
2023-11-25T14:02:40.996Z,12.70
2023-11-25T14:05:09.895Z,14.40
2023-11-25T14:07:38.301Z,15.07
2023-11-25T14:10:06.327Z,13.95
2023-11-25T14:12:33.456Z,10.65
2023-11-25T14:15:00.602Z,10.98
2023-11-25T14:17:27.894Z,11.95
2023-11-25T14:19:55.803Z,12.43
2023-11-25T14:22:23.104Z,14.05
2023-11-25T14:24:51.009Z,11.70
2023-11-25T14:27:18.187Z,9.80
2023-11-25T14:29:45.547Z,13.70
2023-11-25T14:32:12.959Z,16.42
2023-11-25T14:34:41.280Z,19.55
2023-11-25T14:37:08.525Z,16.73
2023-11-25T14:39:44.061Z,14.70
2023-11-25T14:42:14.879Z,17.95
2023-11-25T14:44:42.087Z,12.23
2023-11-25T14:47:12.912Z,16.25
2023-11-25T14:49:40.887Z,15.27
2023-11-25T14:52:08.102Z,10.93
2023-11-25T14:54:35.248Z,12.48
2023-11-25T14:57:02.690Z,9.57
2023-11-25T14:59:29.780Z,14.63
2023-11-25T15:01:57.042Z,12.85
2023-11-25T15:04:24.530Z,16.00
2023-11-25T15:06:51.781Z,16.02
2023-11-25T15:09:19.426Z,12.02
2023-11-25T15:11:46.569Z,10.85
2023-11-25T15:14:13.769Z,14.95
2023-11-25T15:16:40.950Z,13.00
2023-11-25T15:19:08.084Z,15.38
2023-11-25T15:21:35.225Z,13.05
2023-11-25T15:24:02.475Z,14.68
2023-11-25T15:26:29.646Z,10.98
2023-11-25T15:28:56.909Z,16.73
2023-11-25T15:31:24.377Z,8.95
2023-11-25T15:33:52.080Z,12.35
2023-11-25T15:36:19.638Z,14.18
2023-11-25T15:38:47.161Z,12.18
2023-11-25T15:41:14.462Z,9.55
2023-11-25T15:43:44.836Z,11.48
2023-11-25T15:46:12.086Z,16.25
2023-11-25T15:48:39.782Z,11.82
2023-11-25T15:51:10.002Z,12.35
2023-11-25T15:53:37.398Z,16.02
2023-11-25T15:56:04.737Z,14.10
2023-11-25T15:58:32.889Z,14.25
2023-11-25T16:01:00.258Z,15.38
2023-11-25T16:03:27.574Z,13.60
2023-11-25T16:05:54.794Z,12.82
2023-11-25T16:08:21.947Z,14.15
2023-11-25T16:10:52.897Z,10.98
2023-11-25T16:13:20.179Z,9.93
2023-11-25T16:15:47.356Z,13.32
2023-11-25T16:18:16.084Z,10.32
2023-11-25T16:20:44.967Z,12.10
2023-11-25T16:23:12.345Z,15.35
2023-11-25T16:25:39.691Z,16.25
2023-11-25T16:28:07.915Z,12.65
2023-11-25T16:30:35.148Z,14.25
2023-11-25T16:33:06.918Z,21.42
2023-11-25T16:35:34.991Z,15.52
2023-11-25T16:38:02.201Z,19.38
2023-11-25T16:40:29.391Z,13.18
2023-11-25T16:42:57.522Z,16.50
2023-11-25T16:45:26.297Z,14.10
2023-11-25T16:47:53.582Z,15.23
2023-11-25T16:50:20.965Z,16.25
2023-11-25T16:52:48.380Z,18.23
2023-11-25T16:55:15.615Z,13.02
2023-11-25T16:57:44.707Z,18.27
2023-11-25T17:00:12.900Z,15.02
2023-11-25T17:02:40.488Z,13.68
2023-11-25T17:05:09.346Z,17.98
2023-11-25T17:07:37.966Z,15.18
2023-11-25T17:10:05.517Z,18.60
2023-11-25T17:12:32.819Z,15.13
2023-11-25T17:15:00.254Z,13.75
2023-11-25T17:17:27.529Z,17.35
2023-11-25T17:19:55.267Z,16.85
2023-11-25T17:22:22.458Z,17.80
2023-11-25T17:24:49.604Z,13.60
2023-11-25T17:27:17.436Z,17.52
2023-11-25T17:29:44.637Z,17.35
2023-11-25T17:32:12.651Z,16.00
2023-11-25T17:34:39.893Z,17.85
2023-11-25T17:37:07.071Z,14.15
2023-11-25T17:39:34.422Z,17.27
2023-11-25T17:42:01.645Z,13.77
2023-11-25T17:44:29.457Z,17.05
2023-11-25T17:46:56.690Z,13.55
2023-11-25T17:49:23.938Z,19.65
2023-11-25T17:51:51.110Z,16.90
2023-11-25T17:54:18.338Z,13.48
2023-11-25T17:56:45.512Z,16.45
2023-11-25T17:59:13.208Z,14.57
2023-11-25T18:01:41.371Z,9.20
2023-11-25T18:04:08.670Z,15.60
2023-11-25T18:06:35.845Z,12.70
2023-11-25T18:09:03.949Z,20.48
2023-11-25T18:11:31.059Z,13.13
2023-11-25T18:13:58.313Z,11.63
2023-11-25T18:16:25.498Z,15.07
2023-11-25T18:18:53.176Z,18.13
2023-11-25T18:21:20.398Z,23.70
2023-11-25T18:23:47.525Z,22.80
2023-11-25T18:26:16.437Z,17.33
2023-11-25T18:28:45.073Z,13.85
2023-11-25T18:31:17.700Z,14.80
2023-11-25T18:33:44.826Z,16.80
2023-11-25T18:36:11.937Z,14.98
2023-11-25T18:38:39.107Z,15.85
2023-11-25T18:41:07.736Z,17.90
2023-11-25T18:43:37.985Z,19.23
2023-11-25T18:46:06.701Z,16.88
2023-11-25T18:48:34.285Z,19.35
2023-11-25T18:51:08.371Z,15.77
2023-11-25T18:53:36.272Z,17.13
2023-11-25T18:56:03.529Z,12.48
2023-11-25T18:58:32.883Z,21.70
2023-11-25T19:01:00.328Z,18.77
2023-11-25T19:03:27.692Z,23.92
2023-11-25T19:05:55.655Z,20.88
2023-11-25T19:08:22.860Z,20.80
2023-11-25T19:10:50.106Z,20.58
2023-11-25T19:13:17.309Z,19.40
2023-11-25T19:15:44.513Z,22.52
2023-11-25T19:18:12.244Z,17.77
2023-11-25T19:20:39.828Z,20.48
2023-11-25T19:23:07.222Z,23.42
2023-11-25T19:25:37.599Z,23.33
2023-11-25T19:28:04.903Z,26.63
2023-11-25T19:30:32.086Z,23.60
2023-11-25T19:32:59.827Z,23.42
2023-11-25T19:35:27.498Z,24.90
2023-11-25T19:37:55.117Z,26.40
2023-11-25T19:40:22.627Z,23.02
2023-11-25T19:42:49.993Z,27.15
2023-11-25T19:45:17.163Z,26.20
2023-11-25T19:47:44.459Z,26.05
2023-11-25T19:50:12.564Z,21.52
2023-11-25T19:52:39.968Z,23.73
2023-11-25T19:55:08.009Z,26.08
2023-11-25T19:57:35.263Z,26.88
2023-11-25T20:00:05.323Z,25.08
2023-11-25T20:02:38.885Z,26.17
2023-11-25T20:05:06.707Z,27.65
2023-11-25T20:07:33.922Z,25.63
2023-11-25T20:10:01.046Z,30.33
2023-11-25T20:12:28.226Z,35.53
2023-11-25T20:14:56.060Z,45.30
2023-11-25T20:17:23.804Z,40.40
2023-11-25T20:19:51.517Z,37.28
2023-11-25T20:22:21.265Z,34.20
2023-11-25T20:24:48.823Z,31.83
2023-11-25T20:27:15.968Z,26.65
2023-11-25T20:29:43.162Z,22.15
2023-11-25T20:32:10.445Z,25.05
2023-11-25T20:34:39.781Z,27.98
2023-11-25T20:37:07.811Z,22.95
2023-11-25T20:39:35.196Z,24.23
2023-11-25T20:42:02.429Z,19.77
2023-11-25T20:44:29.665Z,21.23
2023-11-25T20:46:57.110Z,24.90
2023-11-25T20:49:24.318Z,20.85
2023-11-25T20:51:51.720Z,21.45
2023-11-25T20:54:19.637Z,22.02
2023-11-25T20:56:47.354Z,20.25
2023-11-25T20:59:14.588Z,24.25
2023-11-25T21:01:41.927Z,23.77
2023-11-25T21:04:09.211Z,27.05
2023-11-25T21:06:36.417Z,22.88
2023-11-25T21:09:03.885Z,18.70
2023-11-25T21:11:31.144Z,22.35
2023-11-25T21:13:59.220Z,25.95
2023-11-25T21:16:27.566Z,20.50
2023-11-25T21:18:54.838Z,22.40
2023-11-25T21:21:21.998Z,21.75
2023-11-25T21:23:49.464Z,23.17
2023-11-25T21:26:17.090Z,23.95
2023-11-25T21:28:44.302Z,23.73
2023-11-25T21:31:13.007Z,27.50
2023-11-25T21:33:40.232Z,27.75
2023-11-25T21:36:07.682Z,29.42
2023-11-25T21:38:34.814Z,31.15
2023-11-25T21:41:02.117Z,33.20
2023-11-25T21:43:29.332Z,34.40
2023-11-25T21:45:56.581Z,37.60
2023-11-25T21:48:23.785Z,34.72
2023-11-25T21:50:51.044Z,29.77
2023-11-25T21:53:18.318Z,26.85
2023-11-25T21:55:45.531Z,36.08
2023-11-25T21:58:12.719Z,28.92
2023-11-25T22:00:40.024Z,31.65
2023-11-25T22:03:07.588Z,35.40
2023-11-25T22:05:34.951Z,34.35
2023-11-25T22:08:02.103Z,31.63
2023-11-25T22:10:30.101Z,33.88
2023-11-25T22:12:58.238Z,31.77
2023-11-25T22:15:25.802Z,32.97
2023-11-25T22:17:53.056Z,34.17
2023-11-25T22:20:20.314Z,44.20
2023-11-25T22:22:47.546Z,32.65
2023-11-25T22:25:24.422Z,25.48
2023-11-25T22:27:51.612Z,29.60
2023-11-25T22:30:18.961Z,32.72
2023-11-25T22:32:46.225Z,32.63
2023-11-25T22:35:13.542Z,30.67
2023-11-25T22:37:40.782Z,29.80
2023-11-25T22:40:08.392Z,33.03
2023-11-25T22:42:36.592Z,32.50
2023-11-25T22:45:03.810Z,31.85
2023-11-25T22:47:31.052Z,31.50
2023-11-25T22:49:58.653Z,31.35
2023-11-25T22:52:25.884Z,27.23
2023-11-25T22:54:54.422Z,24.60
2023-11-25T22:57:21.980Z,23.70
2023-11-25T22:59:53.915Z,19.52
2023-11-25T23:02:21.740Z,21.98
2023-11-25T23:04:49.150Z,20.95
2023-11-25T23:07:16.296Z,20.65
2023-11-25T23:12:10.604Z,15.07
2023-11-25T23:14:39.736Z,17.55
2023-11-25T23:17:09.320Z,14.32
2023-11-25T23:19:36.525Z,17.70
2023-11-25T23:24:30.761Z,14.90
2023-11-25T23:26:57.942Z,15.55
2023-11-25T23:29:26.382Z,16.00
2023-11-25T23:31:53.923Z,12.95
2023-11-25T23:34:22.492Z,13.90
2023-11-25T23:36:49.812Z,14.15
2023-11-25T23:39:17.462Z,15.68
2023-11-25T23:41:44.648Z,14.35
2023-11-25T23:44:11.833Z,13.02
2023-11-25T23:46:39.102Z,11.50
2023-11-25T23:49:06.290Z,10.32
2023-11-25T23:54:00.553Z,11.45
2023-11-25T23:56:32.132Z,12.75
2023-11-25T23:58:59.307Z,12.95
